Time;durP1;ratioP1;P1;durP2;ratioP2;P2;SDS_P1;SDS_P2;PMS_P1;PMS_P2;Temp;Humidity;BMP_temperature;BMP_pressure;BME280_temperature;BME280_humidity;BME280_pressure;Samples;Min_cycle;Max_cycle;Signal;HPM_P1;HPM_P2
2022/01/25 00:24:53;;;;;;;;;;;24.30;99.90;;;;;;5075293;28;19942;-72
2022/01/25 00:29:58;;;;;;;;;;;24.10;99.90;;;;;;5074592;28;19909;-69
2022/01/25 00:32:25;;;;;;;;;;;24.20;99.90;;;;;;5075190;28;19916;-72
2022/01/25 00:34:52;;;;;;;;;;;24.20;99.90;;;;;;5074674;28;20355;-71
2022/01/25 00:37:20;;;;;;;;;;;24.00;99.90;;;;;;5075094;28;19915;-73
2022/01/25 00:39:46;;;;;;;;;;;23.90;99.90;;;;;;5074418;28;20375;-70
2022/01/25 00:42:13;;;;;;;;;;;23.80;99.90;;;;;;5074857;28;19909;-72
2022/01/25 00:44:45;;;;;;;;;;;23.80;99.90;;;;;;5074665;28;20054;-72
2022/01/25 00:47:12;;;;;;;;;;;23.70;99.90;;;;;;5074884;28;19909;-73
2022/01/25 00:49:40;;;;;;;;;;;23.70;99.90;;;;;;5074792;28;19926;-72
2022/01/25 00:54:58;;;;;;;;;;;23.70;99.90;;;;;;5036712;28;20015;-73
2022/01/25 00:57:26;;;;;;;;;;;23.90;99.90;;;;;;5073641;28;20309;-73
2022/01/25 00:59:52;;;;;;;;;;;23.90;99.90;;;;;;5073923;28;20274;-72
2022/01/25 01:02:19;;;;;;;;;;;23.90;99.90;;;;;;5074668;28;19908;-72
2022/01/25 01:04:46;;;;;;;;;;;23.90;99.90;;;;;;5074642;28;19921;-71
2022/01/25 01:07:15;;;;;;;;;;;23.90;99.90;;;;;;5074774;28;19987;-71
2022/01/25 01:09:45;;;;;;;;;;;23.90;99.90;;;;;;5074442;28;19908;-72
2022/01/25 01:12:19;;;;;;;;;;;23.80;99.90;;;;;;5077733;28;19909;-70
2022/01/25 01:28:45;;;;;;;;;;;;;;;;;;;;;
2022/01/25 01:29:04;;;;;;;;;;;23.50;99.90;;;;;;5036264;28;19963;-69
2022/01/25 01:31:17;;;;;;;;;;;24.00;99.90;;;;;;5073741;28;20002;-69
2022/01/25 01:44:49;;;;;;;;;;;24.10;99.90;;;;;;4991811;28;19918;-70
2022/01/25 01:47:24;;;;;;;;;;;24.20;99.90;;;;;;4992355;28;19909;-69
2022/01/25 01:49:51;;;;;;;;;;;24.30;99.90;;;;;;5043935;28;20326;-70
2022/01/25 01:52:17;;;;;;;;;;;24.30;99.90;;;;;;5073206;28;19913;-69
2022/01/25 01:54:44;;;;;;;;;;;24.30;99.90;;;;;;5072996;28;19916;-70
2022/01/25 01:57:11;;;;;;;;;;;24.30;99.90;;;;;;5073463;28;19912;-70
2022/01/25 01:59:37;;;;;;;;;;;24.40;99.90;;;;;;5073023;28;19916;-70
2022/01/25 02:02:05;;;;;;;;;;;24.40;99.90;;;;;;5072933;28;19909;-70
2022/01/25 02:04:31;;;;;;;;;;;24.40;99.90;;;;;;5072958;28;19924;-70
2022/01/25 02:06:58;;;;;;;;;;;24.30;99.90;;;;;;5072743;28;19922;-70
2022/01/25 02:09:25;;;;;;;;;;;24.30;99.90;;;;;;5072833;28;20374;-70
2022/01/25 02:11:51;;;;;;;;;;;24.30;99.90;;;;;;5073036;28;19955;-69
2022/01/25 02:14:18;;;;;;;;;;;24.50;99.90;;;;;;5072928;28;19909;-70
2022/01/25 02:24:48;;;;;;;;;;;24.80;99.90;;;;;;5072617;28;19924;-70
2022/01/25 02:27:15;;;;;;;;;;;24.70;99.90;;;;;;5072656;28;20710;-70
2022/01/25 02:29:42;;;;;;;;;;;24.60;99.90;;;;;;5071818;28;19916;-70
2022/01/25 02:32:09;;;;;;;;;;;24.70;99.90;;;;;;5072025;28;20375;-70
2022/01/25 02:34:35;;;;;;;;;;;24.80;99.90;;;;;;5072517;28;19908;-71
2022/01/25 02:37:04;;;;;;;;;;;24.90;99.90;;;;;;5072477;28;19912;-70
2022/01/25 02:39:31;;;;;;;;;;;24.90;99.90;;;;;;5072348;28;19951;-71
2022/01/25 02:41:58;;;;;;;;;;;24.80;99.90;;;;;;5071929;28;20331;-70
2022/01/25 02:44:27;;;;;;;;;;;24.80;99.90;;;;;;5072147;28;19966;-69
2022/01/25 02:49:31;;;;;;;;;;;25.00;99.90;;;;;;5072172;28;19956;-70
2022/01/25 02:52:00;;;;;;;;;;;24.90;99.90;;;;;;5071633;28;20367;-69
2022/01/25 02:54:27;;;;;;;;;;;24.90;99.90;;;;;;5072361;28;19999;-70
2022/01/25 02:56:54;;;;;;;;;;;24.80;99.90;;;;;;5072101;28;20363;-70
2022/01/25 02:59:21;;;;;;;;;;;24.90;99.90;;;;;;5071747;28;20573;-69
2022/01/25 03:01:49;;;;;;;;;;;25.10;99.90;;;;;;5071285;28;19919;-69
2022/01/25 03:04:17;;;;;;;;;;;25.10;99.90;;;;;;5071741;28;19974;-70
2022/01/25 03:06:44;;;;;;;;;;;25.10;99.90;;;;;;5071927;28;19916;-70
2022/01/25 03:09:11;;;;;;;;;;;25.10;99.90;;;;;;5071983;28;19951;-70
2022/01/25 03:11:38;;;;;;;;;;;25.10;99.90;;;;;;5071865;28;20390;-69
2022/01/25 03:14:09;;;;;;;;;;;25.20;99.90;;;;;;5071612;28;20321;-70
2022/01/25 03:16:44;;;;;;;;;;;25.30;99.90;;;;;;5071941;28;19916;-70
2022/01/25 03:21:58;;;;;;;;;;;25.40;99.90;;;;;;5071386;28;19916;-70
2022/01/25 03:24:25;;;;;;;;;;;25.30;99.90;;;;;;5071768;28;19920;-70
2022/01/25 03:26:52;;;;;;;;;;;25.20;99.90;;;;;;5072016;28;20008;-69
2022/01/25 03:29:19;;;;;;;;;;;25.10;99.90;;;;;;5071673;28;20395;-69
2022/01/25 03:31:46;;;;;;;;;;;25.10;99.90;;;;;;5071784;28;19954;-70
2022/01/25 03:34:12;;;;;;;;;;;25.10;99.90;;;;;;5071746;28;19909;-70
2022/01/25 03:36:39;;;;;;;;;;;25.20;99.90;;;;;;5071489;28;19908;-71
2022/01/25 03:39:06;;;;;;;;;;;25.30;99.90;;;;;;5072101;28;19908;-70
2022/01/25 03:41:33;;;;;;;;;;;25.30;99.90;;;;;;5073714;28;19954;-69
2022/01/25 03:44:00;;;;;;;;;;;25.20;99.90;;;;;;5075374;28;19913;-69
2022/01/25 03:46:35;;;;;;;;;;;25.10;99.90;;;;;;5075647;28;19924;-69
2022/01/25 03:51:48;;;;;;;;;;;25.00;99.90;;;;;;5075162;28;20382;-70
2022/01/25 03:54:15;;;;;;;;;;;25.10;99.90;;;;;;5075650;28;19908;-70
2022/01/25 03:56:42;;;;;;;;;;;25.10;99.90;;;;;;5075391;28;19959;-70
2022/01/25 03:59:09;;;;;;;;;;;25.10;99.90;;;;;;5075469;28;20089;-69
2022/01/25 04:01:36;;;;;;;;;;;25.00;99.90;;;;;;5075151;28;20299;-69
2022/01/25 04:04:10;;;;;;;;;;;25.10;99.90;;;;;;5074864;28;20428;-69
2022/01/25 04:06:37;;;;;;;;;;;25.10;99.90;;;;;;5075411;28;20064;-69
2022/01/25 04:09:06;;;;;;;;;;;25.20;99.90;;;;;;5075166;28;20262;-69
2022/01/25 04:11:32;;;;;;;;;;;25.10;99.90;;;;;;5074779;28;19912;-69
2022/01/25 04:13:59;;;;;;;;;;;25.10;99.90;;;;;;5056432;28;19990;-69
2022/01/25 04:16:55;;;;;;;;;;;25.00;99.90;;;;;;5055186;28;19909;-70
2022/01/25 04:19:33;;;;;;;;;;;25.10;99.90;;;;;;5054844;28;19980;-70
2022/01/25 04:24:56;;;;;;;;;;;25.10;99.90;;;;;;5054396;28;19921;-69
2022/01/25 04:27:24;;;;;;;;;;;24.90;99.90;;;;;;5054892;28;19909;-71
2022/01/25 04:29:51;;;;;;;;;;;25.00;99.90;;;;;;5054598;28;19935;-70
2022/01/25 04:32:18;;;;;;;;;;;24.70;99.90;;;;;;5054738;28;19912;-68
2022/01/25 04:35:07;;;;;;;;;;;24.70;99.90;;;;;;5054879;28;19909;-68
2022/01/25 04:49:04;;;;;;;;;;;24.50;99.90;;;;;;5032478;28;19913;-70
2022/01/25 04:51:55;;;;;;;;;;;24.40;99.90;;;;;;5065640;28;20275;-71
2022/01/25 04:54:48;;;;;;;;;;;24.50;99.90;;;;;;5053990;28;19908;-71
2022/01/25 05:00:00;;;;;;;;;;;24.80;99.90;;;;;;5054063;28;19935;-70
2022/01/25 05:02:44;;;;;;;;;;;24.80;99.90;;;;;;5054348;28;19912;-70
2022/01/25 05:08:19;;;;;;;;;;;24.70;99.90;;;;;;5051114;28;19987;-71
2022/01/25 05:10:59;;;;;;;;;;;24.80;99.90;;;;;;5053945;28;20007;-71
2022/01/25 05:13:46;;;;;;;;;;;24.70;99.90;;;;;;5053813;28;19915;-70
2022/01/25 05:19:21;;;;;;;;;;;24.60;99.90;;;;;;5053827;28;19916;-70
2022/01/25 05:22:06;;;;;;;;;;;24.60;99.90;;;;;;5053421;28;19916;-71
2022/01/25 05:24:34;;;;;;;;;;;24.70;99.90;;;;;;5053644;28;19912;-70
2022/01/25 05:27:01;;;;;;;;;;;24.70;99.90;;;;;;5053545;28;19909;-70
2022/01/25 05:29:27;;;;;;;;;;;24.70;99.90;;;;;;5052329;28;20336;-70
2022/01/25 05:31:54;;;;;;;;;;;24.70;99.90;;;;;;5053164;28;20040;-72
2022/01/25 05:34:21;;;;;;;;;;;24.70;99.90;;;;;;5053812;28;19916;-70
2022/01/25 05:36:47;;;;;;;;;;;24.80;99.90;;;;;;5053602;28;20363;-71
2022/01/25 05:39:20;;;;;;;;;;;24.80;99.90;;;;;;5053420;28;19916;-70
2022/01/25 05:41:56;;;;;;;;;;;24.70;99.90;;;;;;5052911;28;20070;-71
2022/01/25 05:44:38;;;;;;;;;;;24.60;99.90;;;;;;5053317;28;20264;-70
2022/01/25 05:47:07;;;;;;;;;;;24.60;99.90;;;;;;5053371;28;19908;-70
2022/01/25 05:49:35;;;;;;;;;;;24.50;99.90;;;;;;5052932;28;20004;-70
2022/01/25 05:52:02;;;;;;;;;;;24.40;99.90;;;;;;5062917;28;19919;-70
2022/01/25 05:54:29;;;;;;;;;;;24.40;99.90;;;;;;5070768;28;20317;-70
2022/01/25 05:56:55;;;;;;;;;;;24.30;99.90;;;;;;5071021;28;19913;-70
2022/01/25 05:59:22;;;;;;;;;;;24.30;99.90;;;;;;5071028;28;19990;-70
2022/01/25 06:01:49;;;;;;;;;;;24.40;99.90;;;;;;5070565;28;19948;-71
2022/01/25 06:04:16;;;;;;;;;;;24.40;99.90;;;;;;5069581;28;20298;-71
2022/01/25 06:06:42;;;;;;;;;;;24.50;99.90;;;;;;5071081;28;19913;-71
2022/01/25 06:09:09;;;;;;;;;;;24.50;99.90;;;;;;5070421;28;19909;-71
2022/01/25 06:11:37;;;;;;;;;;;24.50;99.90;;;;;;5070092;28;19912;-68
2022/01/25 06:14:04;;;;;;;;;;;24.50;99.90;;;;;;5070134;28;19962;-69
2022/01/25 06:16:31;;;;;;;;;;;24.40;99.90;;;;;;5070363;28;19989;-69
2022/01/25 06:18:58;;;;;;;;;;;24.30;99.90;;;;;;5069834;28;19914;-69
2022/01/25 06:21:25;;;;;;;;;;;24.20;99.90;;;;;;5070428;28;19916;-69
2022/01/25 06:23:52;;;;;;;;;;;24.00;99.90;;;;;;5070087;28;19912;-69
2022/01/25 06:26:19;;;;;;;;;;;24.00;99.90;;;;;;5070159;28;20436;-69
2022/01/25 06:28:45;;;;;;;;;;;24.00;99.90;;;;;;5070545;28;19909;-69
2022/01/25 06:31:12;;;;;;;;;;;23.90;99.90;;;;;;5070203;28;20347;-70
2022/01/25 06:33:42;;;;;;;;;;;24.00;99.90;;;;;;5069987;28;19909;-69
2022/01/25 06:36:09;;;;;;;;;;;24.10;99.90;;;;;;5070116;28;19919;-70
2022/01/25 06:38:36;;;;;;;;;;;24.10;99.90;;;;;;5070258;28;19924;-71
2022/01/25 06:41:03;;;;;;;;;;;24.00;99.90;;;;;;5070229;28;19920;-70
2022/01/25 06:43:30;;;;;;;;;;;24.00;99.90;;;;;;5069471;28;19957;-70
2022/01/25 06:46:01;;;;;;;;;;;24.00;99.90;;;;;;5069860;28;19920;-69
2022/01/25 06:48:28;;;;;;;;;;;24.00;99.90;;;;;;5070155;28;19934;-70
2022/01/25 06:50:55;;;;;;;;;;;23.70;99.90;;;;;;5069682;28;19915;-69
2022/01/25 06:53:21;;;;;;;;;;;23.50;99.90;;;;;;5070060;28;20003;-70
2022/01/25 06:55:48;;;;;;;;;;;23.40;99.90;;;;;;5069912;28;19916;-70
2022/01/25 06:58:15;;;;;;;;;;;23.40;99.90;;;;;;5069475;28;19939;-71
2022/01/25 07:00:41;;;;;;;;;;;23.40;99.90;;;;;;5069708;28;19919;-71
2022/01/25 07:03:08;;;;;;;;;;;23.40;99.90;;;;;;5070026;28;19927;-68
2022/01/25 07:05:35;;;;;;;;;;;23.40;99.90;;;;;;5070213;28;19923;-68
2022/01/25 07:08:02;;;;;;;;;;;23.40;99.90;;;;;;5069924;28;19919;-69
2022/01/25 07:10:29;;;;;;;;;;;23.40;99.90;;;;;;5069384;28;20276;-70
2022/01/25 07:12:56;;;;;;;;;;;23.30;99.90;;;;;;5069790;28;19908;-70
2022/01/25 07:15:22;;;;;;;;;;;23.30;99.90;;;;;;5069633;28;19908;-70
2022/01/25 07:17:49;;;;;;;;;;;23.30;99.90;;;;;;5069748;28;19935;-70
2022/01/25 07:20:16;;;;;;;;;;;23.30;99.90;;;;;;5069125;28;19915;-71
2022/01/25 07:22:43;;;;;;;;;;;23.20;99.90;;;;;;5069663;28;19919;-70
2022/01/25 07:25:10;;;;;;;;;;;23.10;99.90;;;;;;5069822;28;19925;-69
2022/01/25 07:27:37;;;;;;;;;;;23.10;99.90;;;;;;5069457;28;20090;-71
2022/01/25 07:30:05;;;;;;;;;;;23.20;99.90;;;;;;5069302;28;19966;-70
2022/01/25 07:32:31;;;;;;;;;;;23.20;99.90;;;;;;5069725;28;19912;-70
2022/01/25 07:34:58;;;;;;;;;;;23.20;99.90;;;;;;5069710;28;19915;-70
2022/01/25 07:37:25;;;;;;;;;;;23.20;99.90;;;;;;5069415;28;20289;-71
2022/01/25 07:39:51;;;;;;;;;;;23.20;99.90;;;;;;5069535;28;19913;-71
2022/01/25 07:42:18;;;;;;;;;;;23.30;99.90;;;;;;5069388;28;19919;-70
2022/01/25 07:44:45;;;;;;;;;;;23.30;99.90;;;;;;5069613;28;19920;-71
2022/01/25 07:47:12;;;;;;;;;;;23.30;99.90;;;;;;5069995;28;19994;-72
2022/01/25 07:49:38;;;;;;;;;;;23.20;99.90;;;;;;5069117;28;20360;-71
2022/01/25 07:52:05;;;;;;;;;;;23.20;99.90;;;;;;5069367;28;19931;-71
2022/01/25 07:54:32;;;;;;;;;;;23.20;99.90;;;;;;5069371;28;19915;-71
2022/01/25 07:56:59;;;;;;;;;;;23.20;99.90;;;;;;5069277;28;19916;-71
2022/01/25 07:59:25;;;;;;;;;;;23.20;99.90;;;;;;5069644;28;19909;-71
2022/01/25 08:01:52;;;;;;;;;;;23.10;99.90;;;;;;5058389;28;20363;-70
2022/01/25 08:04:19;;;;;;;;;;;23.20;99.90;;;;;;5048478;28;19924;-71
2022/01/25 08:06:46;;;;;;;;;;;23.10;99.90;;;;;;5051847;28;20392;-71
2022/01/25 08:09:13;;;;;;;;;;;23.10;99.90;;;;;;5052075;28;19954;-71
2022/01/25 08:11:40;;;;;;;;;;;23.10;99.90;;;;;;5051261;28;19923;-72
2022/01/25 08:14:14;;;;;;;;;;;23.00;99.90;;;;;;5051268;28;20291;-71
2022/01/25 08:16:42;;;;;;;;;;;23.00;99.90;;;;;;5051685;28;19950;-71
2022/01/25 08:19:09;;;;;;;;;;;22.90;99.90;;;;;;5050886;28;19913;-71
2022/01/25 08:21:41;;;;;;;;;;;22.90;99.90;;;;;;5051127;28;20042;-72
2022/01/25 08:24:08;;;;;;;;;;;22.90;99.90;;;;;;5051073;28;19951;-70
2022/01/25 08:26:35;;;;;;;;;;;23.00;99.90;;;;;;5051205;28;20003;-72
2022/01/25 08:29:02;;;;;;;;;;;22.90;99.90;;;;;;5053848;28;19909;-70
2022/01/25 08:31:38;;;;;;;;;;;22.90;99.90;;;;;;5054996;28;20351;-71
2022/01/25 08:34:06;;;;;;;;;;;22.90;99.90;;;;;;5053095;28;19963;-72
2022/01/25 08:36:32;;;;;;;;;;;22.90;99.90;;;;;;5054643;28;20030;-71
2022/01/25 08:38:59;;;;;;;;;;;22.90;99.90;;;;;;5054954;28;19999;-71
2022/01/25 08:41:26;;;;;;;;;;;23.00;99.90;;;;;;5054514;28;19908;-71
2022/01/25 08:43:52;;;;;;;;;;;23.00;99.90;;;;;;5054324;28;19909;-72
2022/01/25 08:46:19;;;;;;;;;;;22.90;99.90;;;;;;5054836;28;19955;-71
2022/01/25 08:48:46;;;;;;;;;;;22.90;99.90;;;;;;5054240;28;19970;-71
2022/01/25 08:51:13;;;;;;;;;;;22.90;99.90;;;;;;5054287;28;19909;-71
2022/01/25 08:53:40;;;;;;;;;;;22.90;99.90;;;;;;5054557;28;19916;-72
2022/01/25 08:56:07;;;;;;;;;;;22.80;99.90;;;;;;5054160;28;19920;-71
2022/01/25 08:58:33;;;;;;;;;;;22.80;99.90;;;;;;5053193;28;20303;-72
2022/01/25 09:01:00;;;;;;;;;;;22.80;99.90;;;;;;5054256;28;19909;-70
2022/01/25 09:03:27;;;;;;;;;;;22.70;99.90;;;;;;5053614;28;19921;-72
2022/01/25 09:05:54;;;;;;;;;;;22.70;99.90;;;;;;5054121;28;20627;-71
2022/01/25 09:08:26;;;;;;;;;;;22.70;99.90;;;;;;5054233;28;19916;-69
2022/01/25 09:10:58;;;;;;;;;;;22.70;99.90;;;;;;5053842;28;20334;-68
2022/01/25 09:13:25;;;;;;;;;;;22.60;99.90;;;;;;5054303;28;19937;-69
2022/01/25 09:15:52;;;;;;;;;;;22.60;99.90;;;;;;5053900;28;19915;-70
2022/01/25 09:18:19;;;;;;;;;;;22.60;99.90;;;;;;5053924;28;19917;-68
2022/01/25 09:20:45;;;;;;;;;;;22.60;99.90;;;;;;5053685;28;19916;-68
2022/01/25 09:23:15;;;;;;;;;;;22.70;99.90;;;;;;5053878;28;20374;-69
2022/01/25 09:25:42;;;;;;;;;;;22.70;99.90;;;;;;5053850;28;20299;-69
2022/01/25 09:28:09;;;;;;;;;;;22.70;99.90;;;;;;5053852;28;20290;-69
2022/01/25 09:30:35;;;;;;;;;;;22.70;99.90;;;;;;5054663;28;19909;-73
2022/01/25 09:33:02;;;;;;;;;;;22.70;99.90;;;;;;5053742;28;19909;-71
2022/01/25 09:35:29;;;;;;;;;;;22.70;99.90;;;;;;5053918;28;20355;-71
2022/01/25 09:37:57;;;;;;;;;;;22.70;99.90;;;;;;5065830;28;20011;-70
2022/01/25 09:40:23;;;;;;;;;;;22.60;99.90;;;;;;5071304;28;20424;-70
2022/01/25 09:42:53;;;;;;;;;;;22.60;99.90;;;;;;5071208;28;19912;-71
2022/01/25 09:45:20;;;;;;;;;;;22.60;99.90;;;;;;5071288;28;19932;-71
2022/01/25 09:47:47;;;;;;;;;;;22.50;99.90;;;;;;5071353;28;19958;-70
2022/01/25 09:50:14;;;;;;;;;;;22.50;99.90;;;;;;5070694;28;19990;-70
2022/01/25 09:52:42;;;;;;;;;;;22.50;99.90;;;;;;5070862;28;19912;-71
2022/01/25 09:55:10;;;;;;;;;;;22.50;99.90;;;;;;5071229;28;19919;-71
2022/01/25 09:57:37;;;;;;;;;;;22.50;99.90;;;;;;5071353;28;19961;-72
2022/01/25 10:00:05;;;;;;;;;;;22.50;99.90;;;;;;5070554;28;20378;-71
2022/01/25 10:02:50;;;;;;;;;;;22.50;99.90;;;;;;5071450;28;19908;-70
2022/01/25 10:05:25;;;;;;;;;;;22.40;99.90;;;;;;5071084;28;19942;-70
2022/01/25 10:07:55;;;;;;;;;;;22.40;99.90;;;;;;5070660;28;20025;-71
2022/01/25 10:10:22;;;;;;;;;;;22.40;99.90;;;;;;5070722;28;20390;-70
2022/01/25 10:12:49;;;;;;;;;;;22.40;99.90;;;;;;5070903;28;19909;-70
2022/01/25 10:15:16;;;;;;;;;;;22.40;99.90;;;;;;5070964;28;20407;-70
2022/01/25 10:17:43;;;;;;;;;;;22.40;99.90;;;;;;5070840;28;19920;-72
2022/01/25 10:20:26;;;;;;;;;;;22.40;99.90;;;;;;5070921;28;19912;-72
2022/01/25 10:22:53;;;;;;;;;;;22.40;99.90;;;;;;5070484;28;20371;-71
2022/01/25 10:25:30;;;;;;;;;;;22.40;99.90;;;;;;5070914;28;19916;-72
2022/01/25 10:28:00;;;;;;;;;;;22.40;99.90;;;;;;5070716;28;20359;-72
2022/01/25 10:30:30;;;;;;;;;;;22.40;99.90;;;;;;5070509;28;19924;-71
2022/01/25 10:32:59;;;;;;;;;;;22.40;99.90;;;;;;5070825;28;19908;-71
2022/01/25 10:35:26;;;;;;;;;;;22.40;99.90;;;;;;5070560;28;20379;-71
2022/01/25 10:37:52;;;;;;;;;;;22.30;99.90;;;;;;5070201;28;20007;-70
2022/01/25 10:40:39;;;;;;;;;;;22.40;99.90;;;;;;5069683;28;19920;-70
2022/01/25 10:43:06;;;;;;;;;;;22.40;99.90;;;;;;5070249;28;19915;-69
2022/01/25 10:45:33;;;;;;;;;;;22.40;99.90;;;;;;5070516;28;19916;-70
2022/01/25 10:47:59;;;;;;;;;;;22.30;99.90;;;;;;5070559;28;20359;-70
2022/01/25 10:50:28;;;;;;;;;;;22.30;99.90;;;;;;5069422;28;19919;-69
2022/01/25 10:53:10;;;;;;;;;;;22.30;99.90;;;;;;5070373;28;19909;-72
2022/01/25 10:55:38;;;;;;;;;;;22.30;99.90;;;;;;5070078;28;19912;-69
2022/01/25 10:58:05;;;;;;;;;;;22.20;99.90;;;;;;5070293;28;19927;-70
2022/01/25 11:00:33;;;;;;;;;;;22.30;99.90;;;;;;5070384;28;20255;-70
2022/01/25 11:03:01;;;;;;;;;;;22.20;99.90;;;;;;5070172;28;20407;-69
2022/01/25 11:05:32;;;;;;;;;;;22.20;99.90;;;;;;5069903;28;20457;-69
2022/01/25 11:08:09;;;;;;;;;;;22.20;99.90;;;;;;5070386;28;19909;-70
2022/01/25 11:10:38;;;;;;;;;;;22.20;99.90;;;;;;5070174;28;19920;-70
2022/01/25 11:13:21;;;;;;;;;;;22.20;99.90;;;;;;5070326;28;20300;-70
2022/01/25 11:15:48;;;;;;;;;;;22.20;99.90;;;;;;5070153;28;19912;-71
2022/01/25 11:18:14;;;;;;;;;;;22.20;99.90;;;;;;5070537;28;19916;-70
2022/01/25 11:20:41;;;;;;;;;;;22.20;99.90;;;;;;5069833;28;19908;-70
2022/01/25 11:23:08;;;;;;;;;;;22.30;99.90;;;;;;5069795;28;19917;-71
2022/01/25 11:25:36;;;;;;;;;;;22.20;99.90;;;;;;5070238;28;20058;-69
2022/01/25 11:28:03;;;;;;;;;;;22.20;99.90;;;;;;5068831;28;19909;-71
2022/01/25 11:30:30;;;;;;;;;;;22.20;99.90;;;;;;5070390;28;19924;-69
2022/01/25 11:32:57;;;;;;;;;;;22.20;99.90;;;;;;5070299;28;19912;-70
2022/01/25 11:35:25;;;;;;;;;;;22.20;99.90;;;;;;5069457;28;20348;-69
2022/01/25 11:37:52;;;;;;;;;;;22.20;99.90;;;;;;5070016;28;20355;-68
2022/01/25 11:40:33;;;;;;;;;;;22.20;99.90;;;;;;5070179;28;19955;-71
2022/01/25 11:43:03;;;;;;;;;;;22.20;99.90;;;;;;5070095;28;19987;-71
2022/01/25 11:45:31;;;;;;;;;;;22.10;99.90;;;;;;5069837;28;20009;-68
2022/01/25 11:47:58;;;;;;;;;;;22.10;99.90;;;;;;5069739;28;19909;-70
2022/01/25 11:50:26;;;;;;;;;;;22.20;99.90;;;;;;5069332;28;20392;-70
2022/01/25 11:52:54;;;;;;;;;;;22.20;99.90;;;;;;5069893;28;19966;-70
2022/01/25 11:55:30;;;;;;;;;;;22.20;99.90;;;;;;5070049;28;20256;-70
2022/01/25 11:58:03;;;;;;;;;;;22.20;99.90;;;;;;5069778;28;20037;-71
2022/01/25 12:00:46;;;;;;;;;;;22.30;99.90;;;;;;5069898;28;20381;-69
2022/01/25 12:03:25;;;;;;;;;;;22.30;99.90;;;;;;5071004;28;20363;-70
2022/01/25 12:06:03;;;;;;;;;;;22.30;99.90;;;;;;5073156;28;19916;-70
2022/01/25 12:11:31;;;;;;;;;;;22.30;99.90;;;;;;5073380;28;19916;-70
2022/01/25 12:14:14;;;;;;;;;;;22.30;99.90;;;;;;5072909;28;19912;-70
2022/01/25 12:16:44;;;;;;;;;;;22.30;99.90;;;;;;5073363;28;20367;-71
2022/01/25 12:19:11;;;;;;;;;;;22.30;99.90;;;;;;5073432;28;19955;-70
2022/01/25 12:24:20;;;;;;;;;;;22.30;99.90;;;;;;5073054;28;20239;-69
2022/01/25 12:27:10;;;;;;;;;;;22.30;99.90;;;;;;5072925;28;20213;-69
2022/01/25 12:29:41;;;;;;;;;;;22.40;99.90;;;;;;5073604;28;19912;-69
2022/01/25 12:32:17;;;;;;;;;;;22.40;99.90;;;;;;5072768;28;20328;-69
2022/01/25 12:34:58;;;;;;;;;;;22.40;99.90;;;;;;5073015;28;20386;-71
2022/01/25 12:37:43;;;;;;;;;;;22.40;99.90;;;;;;5072973;28;19986;-71
2022/01/25 12:40:28;;;;;;;;;;;22.40;99.90;;;;;;5072322;28;19912;-69
2022/01/25 12:43:09;;;;;;;;;;;22.40;99.90;;;;;;5072739;28;19977;-72
2022/01/25 12:45:40;;;;;;;;;;;22.40;99.90;;;;;;5072675;28;20007;-72
2022/01/25 12:48:08;;;;;;;;;;;22.30;99.90;;;;;;5072660;28;19962;-71
2022/01/25 12:50:37;;;;;;;;;;;22.30;99.90;;;;;;5072646;28;19909;-70
2022/01/25 12:53:06;;;;;;;;;;;22.30;99.90;;;;;;5072363;28;19912;-70
2022/01/25 12:55:35;;;;;;;;;;;22.30;99.90;;;;;;5072555;28;20404;-71
2022/01/25 12:58:03;;;;;;;;;;;22.20;99.90;;;;;;5072627;28;19908;-70
2022/01/25 13:00:48;;;;;;;;;;;22.20;99.90;;;;;;5072824;28;19908;-73
2022/01/25 13:03:15;;;;;;;;;;;22.20;99.90;;;;;;5071053;28;20007;-70
2022/01/25 13:05:46;;;;;;;;;;;22.20;99.90;;;;;;5072583;28;19916;-70
2022/01/25 13:08:17;;;;;;;;;;;22.20;99.90;;;;;;5072532;28;19913;-70
2022/01/25 13:10:44;;;;;;;;;;;22.20;99.90;;;;;;5072372;28;19908;-70
2022/01/25 13:13:22;;;;;;;;;;;22.20;99.90;;;;;;5056792;28;19919;-69
2022/01/25 13:18:15;;;;;;;;;;;22.20;99.90;;;;;;5052464;28;19923;-71
2022/01/25 13:20:45;;;;;;;;;;;22.20;99.90;;;;;;5052250;28;19909;-70
2022/01/25 13:23:12;;;;;;;;;;;22.20;99.90;;;;;;5052182;28;19939;-70
2022/01/25 13:26:08;;;;;;;;;;;22.10;99.90;;;;;;5051746;28;20279;-71
2022/01/25 13:28:36;;;;;;;;;;;22.10;99.90;;;;;;5051989;28;20151;-71
2022/01/25 13:31:13;;;;;;;;;;;22.20;99.90;;;;;;5052237;28;20367;-71
2022/01/25 13:33:40;;;;;;;;;;;22.20;99.90;;;;;;5052055;28;20415;-71
2022/01/25 13:36:08;;;;;;;;;;;22.20;99.90;;;;;;5052022;28;20003;-70
2022/01/25 13:38:39;;;;;;;;;;;22.20;99.90;;;;;;5051655;28;20449;-70
2022/01/25 13:46:33;;;;;;;;;;;22.30;99.90;;;;;;5051832;28;19917;-70
2022/01/25 13:49:14;;;;;;;;;;;22.30;99.90;;;;;;5051824;28;19916;-71
2022/01/25 13:51:48;;;;;;;;;;;22.40;99.90;;;;;;5051529;28;19966;-71
2022/01/25 13:54:17;;;;;;;;;;;22.40;99.90;;;;;;5051593;28;19954;-71
2022/01/25 13:56:44;;;;;;;;;;;22.40;99.90;;;;;;5051590;28;20390;-70
2022/01/25 13:59:11;;;;;;;;;;;22.40;99.90;;;;;;5051704;28;19909;-70
2022/01/25 14:01:39;;;;;;;;;;;22.30;99.90;;;;;;5051591;28;19917;-71
2022/01/25 14:04:27;;;;;;;;;;;22.30;99.90;;;;;;5050580;28;19924;-70
2022/01/25 14:06:55;;;;;;;;;;;22.30;99.90;;;;;;5051360;28;20262;-70
2022/01/25 14:09:28;;;;;;;;;;;22.30;99.90;;;;;;5051198;28;20317;-70
2022/01/25 14:25:32;;;;;;;;;;;22.10;99.90;;;;;;5050139;28;19924;-72
2022/01/25 14:27:59;;;;;;;;;;;22.10;99.90;;;;;;5050905;28;19909;-71
2022/01/25 14:30:33;;;;;;;;;;;22.10;99.90;;;;;;5050609;28;19913;-72
2022/01/25 14:33:10;;;;;;;;;;;22.10;99.90;;;;;;5050904;28;20275;-71
2022/01/25 14:35:43;;;;;;;;;;;22.10;99.90;;;;;;5051134;28;19917;-72
2022/01/25 14:38:20;;;;;;;;;;;22.00;99.90;;;;;;5050796;28;19909;-70
2022/01/25 14:40:58;;;;;;;;;;;22.00;99.90;;;;;;5050792;28;19909;-71
2022/01/25 14:43:30;;;;;;;;;;;22.00;99.90;;;;;;5050378;28;19913;-72
2022/01/25 14:46:00;;;;;;;;;;;22.10;99.90;;;;;;5050265;28;20020;-71
2022/01/25 14:48:29;;;;;;;;;;;22.00;99.90;;;;;;5050613;28;19913;-71
2022/01/25 14:50:59;;;;;;;;;;;22.00;99.90;;;;;;5050677;28;19960;-71
2022/01/25 14:53:25;;;;;;;;;;;22.10;99.90;;;;;;5050625;28;19908;-71
2022/01/25 14:55:53;;;;;;;;;;;22.10;99.90;;;;;;5050619;28;19971;-71
2022/01/25 15:00:53;;;;;;;;;;;22.00;99.90;;;;;;5050588;28;19916;-71
2022/01/25 15:03:22;;;;;;;;;;;22.00;99.90;;;;;;5050359;28;19917;-71
2022/01/25 15:05:49;;;;;;;;;;;22.00;99.90;;;;;;5050499;28;19916;-70
2022/01/25 15:08:16;;;;;;;;;;;22.00;99.90;;;;;;5050296;28;19909;-70
2022/01/25 15:10:45;;;;;;;;;;;22.10;99.90;;;;;;5050130;28;19919;-71
2022/01/25 15:13:14;;;;;;;;;;;22.00;99.90;;;;;;5050358;28;20010;-71
2022/01/25 15:15:55;;;;;;;;;;;22.00;99.90;;;;;;5050454;28;19909;-71
2022/01/25 15:18:23;;;;;;;;;;;22.00;99.90;;;;;;5082604;28;20264;-71
2022/01/25 15:20:49;;;;;;;;;;;22.00;99.90;;;;;;5050196;28;20485;-73
2022/01/25 15:23:21;;;;;;;;;;;22.00;99.90;;;;;;5049854;28;19947;-72
2022/01/25 15:25:49;;;;;;;;;;;21.90;99.90;;;;;;5050130;28;20367;-71
2022/01/25 15:28:16;;;;;;;;;;;22.00;99.90;;;;;;5050287;28;20410;-71
2022/01/25 15:30:43;;;;;;;;;;;21.90;99.90;;;;;;5050186;28;19912;-72
2022/01/25 15:33:11;;;;;;;;;;;21.90;99.90;;;;;;5050092;28;19958;-71
2022/01/25 15:35:38;;;;;;;;;;;21.80;99.90;;;;;;5049801;28;19912;-70
2022/01/25 15:38:05;;;;;;;;;;;21.80;99.90;;;;;;5053051;28;19935;-72
2022/01/25 15:40:33;;;;;;;;;;;21.80;99.90;;;;;;5054345;28;19908;-71
2022/01/25 15:43:02;;;;;;;;;;;21.70;99.90;;;;;;5054316;28;19909;-71
2022/01/25 15:45:41;;;;;;;;;;;21.70;99.90;;;;;;5054245;28;20303;-72
2022/01/25 15:48:08;;;;;;;;;;;21.70;99.90;;;;;;5053964;28;19912;-72
2022/01/25 15:50:35;;;;;;;;;;;21.70;99.90;;;;;;5053696;28;19908;-71
2022/01/25 15:53:01;;;;;;;;;;;21.70;99.90;;;;;;5054033;28;19919;-72
2022/01/25 15:55:28;;;;;;;;;;;21.60;99.90;;;;;;5053996;28;20334;-71
2022/01/25 15:57:55;;;;;;;;;;;21.50;99.90;;;;;;5053613;28;19913;-72
2022/01/25 16:00:21;;;;;;;;;;;21.50;99.90;;;;;;5053746;28;19992;-71
2022/01/25 16:03:07;;;;;;;;;;;21.50;99.90;;;;;;5053316;28;20790;-72
2022/01/25 16:05:34;;;;;;;;;;;21.50;99.90;;;;;;5055648;28;19920;-72
2022/01/25 16:08:00;;;;;;;;;;;21.40;99.90;;;;;;5055554;28;19932;-72
2022/01/25 16:10:31;;;;;;;;;;;21.40;99.90;;;;;;5055812;28;20318;-71
2022/01/25 16:12:59;;;;;;;;;;;21.40;99.90;;;;;;5055541;28;19926;-73
2022/01/25 16:15:25;;;;;;;;;;;21.40;99.90;;;;;;5055603;28;20348;-73
2022/01/25 16:17:52;;;;;;;;;;;21.30;99.90;;;;;;5055286;28;19909;-72
2022/01/25 16:20:19;;;;;;;;;;;21.30;99.90;;;;;;5055333;28;20356;-72
2022/01/25 16:22:45;;;;;;;;;;;21.30;99.90;;;;;;5055477;28;19909;-72
2022/01/25 16:25:12;;;;;;;;;;;21.30;99.90;;;;;;5055258;28;20016;-72
2022/01/25 16:27:39;;;;;;;;;;;21.20;99.90;;;;;;5055544;28;19916;-72
2022/01/25 16:30:06;;;;;;;;;;;21.20;99.90;;;;;;5055198;28;20301;-72
2022/01/25 16:32:41;;;;;;;;;;;21.20;99.90;;;;;;5055255;28;19909;-72